sensor_id;sensor_type;location;lat;lon;timestamp;pressure;altitude;pressure_sealevel;temperature;humidity
77979;BME280;67169;50.268;8.694;2023-06-10T00:00:04;99413.31;;;18.49;58.68
77979;BME280;67169;50.268;8.694;2023-06-10T00:02:32;99412.34;;;18.50;57.99
77979;BME280;67169;50.268;8.694;2023-06-10T00:04:58;99410.38;;;18.53;58.40
77979;BME280;67169;50.268;8.694;2023-06-10T00:07:25;99416.28;;;18.46;58.38
77979;BME280;67169;50.268;8.694;2023-06-10T00:09:52;99419.38;;;18.42;58.16
77979;BME280;67169;50.268;8.694;2023-06-10T00:12:18;99417.97;;;18.36;58.77
77979;BME280;67169;50.268;8.694;2023-06-10T00:14:45;99412.69;;;18.22;58.50
77979;BME280;67169;50.268;8.694;2023-06-10T00:17:14;99407.44;;;18.32;58.12
77979;BME280;67169;50.268;8.694;2023-06-10T00:19:41;99426.25;;;18.35;58.16
77979;BME280;67169;50.268;8.694;2023-06-10T00:22:09;99421.38;;;18.27;57.86
77979;BME280;67169;50.268;8.694;2023-06-10T00:24:35;99412.25;;;18.28;57.98
77979;BME280;67169;50.268;8.694;2023-06-10T00:27:02;99416.91;;;18.26;57.76
77979;BME280;67169;50.268;8.694;2023-06-10T00:29:30;99412.06;;;18.18;57.64
77979;BME280;67169;50.268;8.694;2023-06-10T00:31:57;99411.41;;;18.15;58.15
77979;BME280;67169;50.268;8.694;2023-06-10T00:34:25;99404.56;;;18.09;58.57
77979;BME280;67169;50.268;8.694;2023-06-10T00:36:51;99406.66;;;18.06;58.97
77979;BME280;67169;50.268;8.694;2023-06-10T00:39:18;99416.03;;;18.01;58.11
77979;BME280;67169;50.268;8.694;2023-06-10T00:41:45;99400.16;;;17.95;58.08
77979;BME280;67169;50.268;8.694;2023-06-10T00:44:11;99396.28;;;17.87;57.99
77979;BME280;67169;50.268;8.694;2023-06-10T00:46:38;99407.59;;;17.93;58.08
77979;BME280;67169;50.268;8.694;2023-06-10T00:49:05;99409.66;;;17.90;57.87
77979;BME280;67169;50.268;8.694;2023-06-10T00:51:33;99346.06;;;17.54;57.48
77979;BME280;67169;50.268;8.694;2023-06-10T00:54:01;99410.53;;;17.90;57.54
77979;BME280;67169;50.268;8.694;2023-06-10T00:56:28;99410.97;;;17.84;58.12
77979;BME280;67169;50.268;8.694;2023-06-10T00:58:55;99410.22;;;17.82;57.30
77979;BME280;67169;50.268;8.694;2023-06-10T01:01:22;99408.72;;;17.78;57.26
77979;BME280;67169;50.268;8.694;2023-06-10T01:03:49;99412.06;;;17.82;57.81
77979;BME280;67169;50.268;8.694;2023-06-10T01:06:20;99415.31;;;17.74;57.32
77979;BME280;67169;50.268;8.694;2023-06-10T01:08:55;99414.81;;;17.69;57.81
77979;BME280;67169;50.268;8.694;2023-06-10T01:11:28;99416.75;;;17.67;58.96
77979;BME280;67169;50.268;8.694;2023-06-10T01:13:57;99419.03;;;17.73;57.80
77979;BME280;67169;50.268;8.694;2023-06-10T01:16:25;99416.75;;;17.67;57.22
77979;BME280;67169;50.268;8.694;2023-06-10T01:18:51;99384.94;;;17.43;57.73
77979;BME280;67169;50.268;8.694;2023-06-10T01:21:22;99419.13;;;17.71;56.94
77979;BME280;67169;50.268;8.694;2023-06-10T01:23:51;99411.75;;;17.61;57.18
77979;BME280;67169;50.268;8.694;2023-06-10T01:26:20;99412.81;;;17.71;57.38
77979;BME280;67169;50.268;8.694;2023-06-10T01:28:54;99416.13;;;17.76;57.26
77979;BME280;67169;50.268;8.694;2023-06-10T01:31:30;99420.25;;;17.69;56.79
77979;BME280;67169;50.268;8.694;2023-06-10T01:34:00;99411.75;;;17.61;56.46
77979;BME280;67169;50.268;8.694;2023-06-10T01:36:29;99410.38;;;17.55;57.13
77979;BME280;67169;50.268;8.694;2023-06-10T01:38:56;99421.78;;;17.47;58.04
77979;BME280;67169;50.268;8.694;2023-06-10T01:41:24;99418.53;;;17.42;57.67
77979;BME280;67169;50.268;8.694;2023-06-10T01:43:51;99423.53;;;17.36;58.12
77979;BME280;67169;50.268;8.694;2023-06-10T01:46:18;99427.34;;;17.33;57.47
77979;BME280;67169;50.268;8.694;2023-06-10T01:48:46;99423.88;;;17.31;57.66
77979;BME280;67169;50.268;8.694;2023-06-10T01:51:13;99417.66;;;17.29;57.83
77979;BME280;67169;50.268;8.694;2023-06-10T01:53:41;99425.72;;;17.43;57.10
77979;BME280;67169;50.268;8.694;2023-06-10T01:56:07;99422.47;;;17.38;57.08
77979;BME280;67169;50.268;8.694;2023-06-10T01:58:34;99422.47;;;17.38;57.37
77979;BME280;67169;50.268;8.694;2023-06-10T02:01:00;99426.13;;;17.37;57.30
77979;BME280;67169;50.268;8.694;2023-06-10T02:03:27;99426.13;;;17.37;57.40
77979;BME280;67169;50.268;8.694;2023-06-10T02:05:53;99423.97;;;17.29;57.43
77979;BME280;67169;50.268;8.694;2023-06-10T02:08:20;99427.69;;;17.28;57.13
77979;BME280;67169;50.268;8.694;2023-06-10T02:10:48;99429.75;;;17.25;57.01
77979;BME280;67169;50.268;8.694;2023-06-10T02:13:15;99428.75;;;17.26;57.60
77979;BME280;67169;50.268;8.694;2023-06-10T02:15:41;99428.22;;;17.21;57.51
77979;BME280;67169;50.268;8.694;2023-06-10T02:18:08;99424.88;;;17.17;57.16
77979;BME280;67169;50.268;8.694;2023-06-10T02:20:35;99418.66;;;17.15;56.68
77979;BME280;67169;50.268;8.694;2023-06-10T02:23:01;99424.22;;;17.14;57.00
77979;BME280;67169;50.268;8.694;2023-06-10T02:25:28;99393.09;;;16.92;57.04
77979;BME280;67169;50.268;8.694;2023-06-10T02:27:56;99423.31;;;17.13;57.65
77979;BME280;67169;50.268;8.694;2023-06-10T02:30:23;99424.44;;;17.11;56.98
77979;BME280;67169;50.268;8.694;2023-06-10T02:32:49;99422.78;;;17.08;56.77
77979;BME280;67169;50.268;8.694;2023-06-10T02:35:17;99427.44;;;17.06;57.28
77979;BME280;67169;50.268;8.694;2023-06-10T02:37:44;99427.66;;;17.03;57.42
77979;BME280;67169;50.268;8.694;2023-06-10T02:40:11;99429.41;;;16.91;57.17
77979;BME280;67169;50.268;8.694;2023-06-10T02:42:38;99431.78;;;16.96;57.60
77979;BME280;67169;50.268;8.694;2023-06-10T02:45:07;99443.31;;;16.99;57.35
77979;BME280;67169;50.268;8.694;2023-06-10T02:47:34;99441.47;;;17.00;57.54
77979;BME280;67169;50.268;8.694;2023-06-10T02:50:00;99398.94;;;16.86;56.59
77979;BME280;67169;50.268;8.694;2023-06-10T02:52:27;99432.66;;;17.09;56.19
77979;BME280;67169;50.268;8.694;2023-06-10T02:54:54;99430.50;;;17.14;55.97
77979;BME280;67169;50.268;8.694;2023-06-10T02:57:20;99440.16;;;17.05;56.58
77979;BME280;67169;50.268;8.694;2023-06-10T02:59:47;99446.78;;;17.01;56.54
77979;BME280;67169;50.268;8.694;2023-06-10T03:02:15;99441.78;;;16.95;57.80
77979;BME280;67169;50.268;8.694;2023-06-10T03:04:42;99438.28;;;16.80;58.52
77979;BME280;67169;50.268;8.694;2023-06-10T03:07:08;99427.13;;;16.58;59.28
77979;BME280;67169;50.268;8.694;2023-06-10T03:09:36;99428.44;;;16.52;59.84
77979;BME280;67169;50.268;8.694;2023-06-10T03:12:03;99423.34;;;16.33;60.69
77979;BME280;67169;50.268;8.694;2023-06-10T03:14:31;99415.88;;;16.10;61.11
77979;BME280;67169;50.268;8.694;2023-06-10T03:16:57;99419.41;;;15.98;61.54
77979;BME280;67169;50.268;8.694;2023-06-10T03:19:26;99442.53;;;16.03;62.06
77979;BME280;67169;50.268;8.694;2023-06-10T03:22:07;99445.47;;;15.86;62.50
77979;BME280;67169;50.268;8.694;2023-06-10T03:24:34;99445.78;;;15.81;63.13
77979;BME280;67169;50.268;8.694;2023-06-10T03:27:01;99442.91;;;15.70;63.35
77979;BME280;67169;50.268;8.694;2023-06-10T03:29:30;99443.75;;;15.56;63.85
77979;BME280;67169;50.268;8.694;2023-06-10T03:31:57;99456.22;;;15.44;64.35
77979;BME280;67169;50.268;8.694;2023-06-10T03:34:23;99442.59;;;15.32;64.90
77979;BME280;67169;50.268;8.694;2023-06-10T03:36:51;99462.13;;;15.37;64.63
77979;BME280;67169;50.268;8.694;2023-06-10T03:39:18;99460.91;;;15.42;64.28
77979;BME280;67169;50.268;8.694;2023-06-10T03:41:44;99451.72;;;15.45;64.11
77979;BME280;67169;50.268;8.694;2023-06-10T03:44:11;99456.72;;;15.51;64.01
77979;BME280;67169;50.268;8.694;2023-06-10T03:46:38;99450.44;;;15.51;64.57
77979;BME280;67169;50.268;8.694;2023-06-10T03:49:04;99459.53;;;15.50;64.95
77979;BME280;67169;50.268;8.694;2023-06-10T03:51:31;99464.09;;;15.49;65.04
77979;BME280;67169;50.268;8.694;2023-06-10T03:53:59;99470.28;;;15.51;64.74
77979;BME280;67169;50.268;8.694;2023-06-10T03:56:25;99467.56;;;15.51;64.77
77979;BME280;67169;50.268;8.694;2023-06-10T03:58:52;99474.81;;;15.51;64.89
77979;BME280;67169;50.268;8.694;2023-06-10T04:01:18;99469.41;;;15.51;64.89
77979;BME280;67169;50.268;8.694;2023-06-10T04:03:46;99463.69;;;15.55;64.89
77979;BME280;67169;50.268;8.694;2023-06-10T04:06:14;99463.91;;;15.52;65.54
77979;BME280;67169;50.268;8.694;2023-06-10T04:08:41;99470.06;;;15.54;65.25
77979;BME280;67169;50.268;8.694;2023-06-10T04:11:09;99469.81;;;15.59;65.23
77979;BME280;67169;50.268;8.694;2023-06-10T04:13:36;99470.25;;;15.65;65.24
77979;BME280;67169;50.268;8.694;2023-06-10T04:16:03;99464.59;;;15.70;65.21
77979;BME280;67169;50.268;8.694;2023-06-10T04:18:30;99472.72;;;15.70;65.72
77979;BME280;67169;50.268;8.694;2023-06-10T04:20:56;99470.38;;;15.64;66.32
77979;BME280;67169;50.268;8.694;2023-06-10T04:23:23;99476.13;;;15.74;65.51
77979;BME280;67169;50.268;8.694;2023-06-10T04:25:49;99455.59;;;15.70;65.29
77979;BME280;67169;50.268;8.694;2023-06-10T04:28:17;99485.50;;;15.82;66.23
77979;BME280;67169;50.268;8.694;2023-06-10T04:30:44;99480.34;;;15.92;65.67
77979;BME280;67169;50.268;8.694;2023-06-10T04:33:11;99480.50;;;16.03;65.44
77979;BME280;67169;50.268;8.694;2023-06-10T04:35:37;99471.91;;;16.11;65.28
77979;BME280;67169;50.268;8.694;2023-06-10T04:38:04;99471.59;;;16.16;65.79
77979;BME280;67169;50.268;8.694;2023-06-10T04:40:30;99448.94;;;16.02;65.83
77979;BME280;67169;50.268;8.694;2023-06-10T04:42:57;99472.41;;;16.30;65.87
77979;BME280;67169;50.268;8.694;2023-06-10T04:45:25;99469.88;;;16.42;64.49
77979;BME280;67169;50.268;8.694;2023-06-10T04:47:52;99474.56;;;16.52;64.28
77979;BME280;67169;50.268;8.694;2023-06-10T04:50:21;99484.66;;;16.77;65.23
77979;BME280;67169;50.268;8.694;2023-06-10T04:52:47;99485.88;;;16.86;63.83
77979;BME280;67169;50.268;8.694;2023-06-10T04:55:14;99481.34;;;16.99;64.21
77979;BME280;67169;50.268;8.694;2023-06-10T04:57:40;99468.13;;;17.07;63.32
77979;BME280;67169;50.268;8.694;2023-06-10T05:00:08;99471.25;;;17.27;62.89
77979;BME280;67169;50.268;8.694;2023-06-10T05:02:36;99475.06;;;17.37;63.65
77979;BME280;67169;50.268;8.694;2023-06-10T05:05:03;99468.00;;;17.47;62.24
77979;BME280;67169;50.268;8.694;2023-06-10T05:07:29;99468.13;;;17.59;61.79
77979;BME280;67169;50.268;8.694;2023-06-10T05:09:56;99468.22;;;17.70;61.69
77979;BME280;67169;50.268;8.694;2023-06-10T05:12:22;99476.16;;;17.86;61.41
77979;BME280;67169;50.268;8.694;2023-06-10T05:14:49;99466.75;;;18.02;61.00
77979;BME280;67169;50.268;8.694;2023-06-10T05:17:16;99464.00;;;18.15;60.73
77979;BME280;67169;50.268;8.694;2023-06-10T05:19:44;99472.00;;;18.30;60.70
77979;BME280;67169;50.268;8.694;2023-06-10T05:22:12;99473.19;;;18.38;59.86
77979;BME280;67169;50.268;8.694;2023-06-10T05:24:39;99483.31;;;18.60;60.53
77979;BME280;67169;50.268;8.694;2023-06-10T05:27:06;99483.28;;;18.73;60.34
77979;BME280;67169;50.268;8.694;2023-06-10T05:29:33;99483.88;;;18.89;59.92
77979;BME280;67169;50.268;8.694;2023-06-10T05:32:00;99483.34;;;18.84;59.75
77979;BME280;67169;50.268;8.694;2023-06-10T05:34:28;99485.88;;;18.98;60.03
77979;BME280;67169;50.268;8.694;2023-06-10T05:36:56;99475.50;;;19.04;59.85
77979;BME280;67169;50.268;8.694;2023-06-10T05:39:23;99482.22;;;19.22;59.85
77979;BME280;67169;50.268;8.694;2023-06-10T05:41:49;99489.94;;;19.28;60.16
77979;BME280;67169;50.268;8.694;2023-06-10T05:44:16;99483.75;;;19.49;59.72
77979;BME280;67169;50.268;8.694;2023-06-10T05:46:42;99490.84;;;19.62;59.94
77979;BME280;67169;50.268;8.694;2023-06-10T05:49:09;99491.25;;;19.69;58.89
77979;BME280;67169;50.268;8.694;2023-06-10T05:51:36;99463.47;;;19.64;59.40
77979;BME280;67169;50.268;8.694;2023-06-10T05:54:05;99492.41;;;19.89;58.00
77979;BME280;67169;50.268;8.694;2023-06-10T05:56:31;99490.38;;;20.02;57.65
77979;BME280;67169;50.268;8.694;2023-06-10T05:58:58;99473.63;;;20.07;57.47
77979;BME280;67169;50.268;8.694;2023-06-10T06:01:24;99497.81;;;20.23;55.54
77979;BME280;67169;50.268;8.694;2023-06-10T06:03:51;99489.09;;;20.29;54.42
77979;BME280;67169;50.268;8.694;2023-06-10T06:06:18;99489.63;;;20.34;52.08
77979;BME280;67169;50.268;8.694;2023-06-10T06:08:45;99493.44;;;20.43;52.87
77979;BME280;67169;50.268;8.694;2023-06-10T06:11:13;99485.47;;;20.51;52.08
77979;BME280;67169;50.268;8.694;2023-06-10T06:13:40;99486.19;;;20.64;53.48
77979;BME280;67169;50.268;8.694;2023-06-10T06:16:07;99484.59;;;20.61;51.50
77979;BME280;67169;50.268;8.694;2023-06-10T06:18:34;99465.06;;;20.66;52.07
77979;BME280;67169;50.268;8.694;2023-06-10T06:21:00;99489.84;;;20.85;51.58
77979;BME280;67169;50.268;8.694;2023-06-10T06:23:27;99495.28;;;20.97;52.69
77979;BME280;67169;50.268;8.694;2023-06-10T06:25:53;99488.81;;;21.19;50.23
77979;BME280;67169;50.268;8.694;2023-06-10T06:28:21;99487.81;;;21.20;50.97
77979;BME280;67169;50.268;8.694;2023-06-10T06:30:48;99447.25;;;21.04;51.12
77979;BME280;67169;50.268;8.694;2023-06-10T06:33:14;99490.00;;;21.37;51.01
77979;BME280;67169;50.268;8.694;2023-06-10T06:35:41;99495.78;;;21.44;52.01
77979;BME280;67169;50.268;8.694;2023-06-10T06:38:08;99492.97;;;21.55;50.17
77979;BME280;67169;50.268;8.694;2023-06-10T06:40:34;99488.44;;;21.65;49.24
77979;BME280;67169;50.268;8.694;2023-06-10T06:43:01;99485.44;;;21.68;49.87
77979;BME280;67169;50.268;8.694;2023-06-10T06:45:29;99497.00;;;21.81;48.63
77979;BME280;67169;50.268;8.694;2023-06-10T06:47:55;99487.84;;;21.92;47.47
77979;BME280;67169;50.268;8.694;2023-06-10T06:50:22;99497.16;;;21.80;50.30
77979;BME280;67169;50.268;8.694;2023-06-10T06:52:48;99507.69;;;21.85;48.31
77979;BME280;67169;50.268;8.694;2023-06-10T06:55:15;99496.19;;;21.91;49.38
77979;BME280;67169;50.268;8.694;2023-06-10T06:57:41;99501.28;;;22.05;48.72
77979;BME280;67169;50.268;8.694;2023-06-10T07:00:09;99493.81;;;22.07;46.71
77979;BME280;67169;50.268;8.694;2023-06-10T07:02:37;99501.28;;;22.05;46.49
77979;BME280;67169;50.268;8.694;2023-06-10T07:05:04;99507.63;;;22.26;47.67
77979;BME280;67169;50.268;8.694;2023-06-10T07:07:31;99498.72;;;22.44;46.26
77979;BME280;67169;50.268;8.694;2023-06-10T07:09:57;99498.28;;;22.48;47.01
77979;BME280;67169;50.268;8.694;2023-06-10T07:12:24;99509.09;;;22.40;47.24
77979;BME280;67169;50.268;8.694;2023-06-10T07:14:50;99505.47;;;22.40;47.29
77979;BME280;67169;50.268;8.694;2023-06-10T07:17:17;99504.00;;;22.36;47.49
77979;BME280;67169;50.268;8.694;2023-06-10T07:19:45;99510.00;;;22.50;48.19
77979;BME280;67169;50.268;8.694;2023-06-10T07:22:12;99506.69;;;22.66;48.05
77979;BME280;67169;50.268;8.694;2023-06-10T07:24:39;99502.09;;;22.77;49.77
77979;BME280;67169;50.268;8.694;2023-06-10T07:27:06;99510.75;;;22.82;48.91
77979;BME280;67169;50.268;8.694;2023-06-10T07:29:32;99507.13;;;22.91;47.68
77979;BME280;67169;50.268;8.694;2023-06-10T07:32:01;99506.47;;;23.18;48.21
77979;BME280;67169;50.268;8.694;2023-06-10T07:34:27;99499.94;;;23.29;47.41
77979;BME280;67169;50.268;8.694;2023-06-10T07:36:55;99503.56;;;23.00;47.11
77979;BME280;67169;50.268;8.694;2023-06-10T07:39:22;99507.72;;;22.85;46.82
77979;BME280;67169;50.268;8.694;2023-06-10T07:41:48;99509.94;;;23.01;46.68
77979;BME280;67169;50.268;8.694;2023-06-10T07:44:15;99504.13;;;23.33;47.23
77979;BME280;67169;50.268;8.694;2023-06-10T07:46:41;99505.59;;;23.37;46.66
77979;BME280;67169;50.268;8.694;2023-06-10T07:49:08;99502.22;;;23.43;46.38
77979;BME280;67169;50.268;8.694;2023-06-10T07:51:34;99508.88;;;23.50;45.91
77979;BME280;67169;50.268;8.694;2023-06-10T07:54:03;99505.63;;;23.84;45.71
77979;BME280;67169;50.268;8.694;2023-06-10T07:56:29;99499.34;;;24.01;46.25
77979;BME280;67169;50.268;8.694;2023-06-10T07:58:57;99500.09;;;24.03;44.76
77979;BME280;67169;50.268;8.694;2023-06-10T08:01:23;99488.38;;;24.01;45.12
77979;BME280;67169;50.268;8.694;2023-06-10T08:03:51;99513.19;;;24.19;46.03
77979;BME280;67169;50.268;8.694;2023-06-10T08:06:17;99498.84;;;24.53;44.76
77979;BME280;67169;50.268;8.694;2023-06-10T08:08:44;99501.03;;;24.49;43.72
77979;BME280;67169;50.268;8.694;2023-06-10T08:11:12;99499.88;;;24.70;44.53
77979;BME280;67169;50.268;8.694;2023-06-10T08:13:39;99508.38;;;24.76;45.75
77979;BME280;67169;50.268;8.694;2023-06-10T08:16:06;99506.97;;;24.90;45.22
77979;BME280;67169;50.268;8.694;2023-06-10T08:18:32;99507.94;;;24.99;45.08
77979;BME280;67169;50.268;8.694;2023-06-10T08:20:59;99501.00;;;24.77;45.35
77979;BME280;67169;50.268;8.694;2023-06-10T08:23:25;99497.00;;;25.07;44.66
77979;BME280;67169;50.268;8.694;2023-06-10T08:25:52;99503.69;;;25.22;45.17
77979;BME280;67169;50.268;8.694;2023-06-10T08:28:20;99503.06;;;24.93;44.21
77979;BME280;67169;50.268;8.694;2023-06-10T08:30:46;99500.75;;;25.42;45.00
77979;BME280;67169;50.268;8.694;2023-06-10T08:33:13;99505.22;;;25.61;43.81
77979;BME280;67169;50.268;8.694;2023-06-10T08:35:39;99495.25;;;25.42;43.10
77979;BME280;67169;50.268;8.694;2023-06-10T08:38:06;99498.00;;;25.86;42.93
77979;BME280;67169;50.268;8.694;2023-06-10T08:40:33;99490.09;;;25.65;43.47
77979;BME280;67169;50.268;8.694;2023-06-10T08:43:04;99490.25;;;25.63;42.87
77979;BME280;67169;50.268;8.694;2023-06-10T08:45:35;99504.38;;;25.86;40.35
77979;BME280;67169;50.268;8.694;2023-06-10T08:48:02;99497.09;;;26.11;41.58
77979;BME280;67169;50.268;8.694;2023-06-10T08:50:33;99495.41;;;26.52;42.94
77979;BME280;67169;50.268;8.694;2023-06-10T08:53:00;99488.06;;;26.27;40.52
77979;BME280;67169;50.268;8.694;2023-06-10T08:55:31;99492.00;;;26.67;41.83
77979;BME280;67169;50.268;8.694;2023-06-10T08:57:59;99489.97;;;26.35;38.39
77979;BME280;67169;50.268;8.694;2023-06-10T09:00:26;99472.13;;;26.47;41.32
77979;BME280;67169;50.268;8.694;2023-06-10T09:02:55;99484.47;;;26.85;40.38
77979;BME280;67169;50.268;8.694;2023-06-10T09:05:22;99495.22;;;27.21;39.28
77979;BME280;67169;50.268;8.694;2023-06-10T09:07:49;99486.78;;;27.31;39.23
77979;BME280;67169;50.268;8.694;2023-06-10T09:10:17;99489.00;;;27.52;37.86
77979;BME280;67169;50.268;8.694;2023-06-10T09:12:43;99489.00;;;27.84;38.08
77979;BME280;67169;50.268;8.694;2023-06-10T09:15:10;99489.19;;;27.42;37.78
77979;BME280;67169;50.268;8.694;2023-06-10T09:17:39;99471.94;;;27.40;39.56
77979;BME280;67169;50.268;8.694;2023-06-10T09:20:08;99486.41;;;27.75;37.65
77979;BME280;67169;50.268;8.694;2023-06-10T09:22:35;99478.81;;;27.77;38.17
77979;BME280;67169;50.268;8.694;2023-06-10T09:25:02;99476.19;;;28.47;38.79
77979;BME280;67169;50.268;8.694;2023-06-10T09:27:30;99485.75;;;28.68;35.81
77979;BME280;67169;50.268;8.694;2023-06-10T09:29:57;99487.91;;;28.49;36.20
77979;BME280;67169;50.268;8.694;2023-06-10T09:32:24;99474.97;;;28.50;37.80
77979;BME280;67169;50.268;8.694;2023-06-10T09:34:51;99484.75;;;28.60;37.16
77979;BME280;67169;50.268;8.694;2023-06-10T09:37:21;99482.91;;;29.07;36.23
77979;BME280;67169;50.268;8.694;2023-06-10T09:40:01;99478.47;;;28.98;35.73
77979;BME280;67169;50.268;8.694;2023-06-10T09:42:32;99485.09;;;28.89;37.91
77979;BME280;67169;50.268;8.694;2023-06-10T09:44:58;99476.38;;;29.46;34.44
77979;BME280;67169;50.268;8.694;2023-06-10T09:47:25;99478.84;;;29.41;35.16
77979;BME280;67169;50.268;8.694;2023-06-10T09:49:52;99473.22;;;29.49;35.73
77979;BME280;67169;50.268;8.694;2023-06-10T09:52:22;99478.09;;;29.47;35.80
77979;BME280;67169;50.268;8.694;2023-06-10T09:54:50;99463.75;;;29.81;32.60
77979;BME280;67169;50.268;8.694;2023-06-10T09:57:17;99465.00;;;29.78;32.71
77979;BME280;67169;50.268;8.694;2023-06-10T09:59:44;99459.66;;;29.92;33.32
77979;BME280;67169;50.268;8.694;2023-06-10T10:02:13;99471.19;;;28.97;35.35
77979;BME280;67169;50.268;8.694;2023-06-10T10:04:40;99459.59;;;29.62;35.13
77979;BME280;67169;50.268;8.694;2023-06-10T10:07:07;99463.19;;;30.15;34.64
77979;BME280;67169;50.268;8.694;2023-06-10T10:09:35;99466.81;;;30.16;33.85
77979;BME280;67169;50.268;8.694;2023-06-10T10:12:05;99448.91;;;30.48;32.11
77979;BME280;67169;50.268;8.694;2023-06-10T10:14:36;99451.53;;;30.71;34.24
77979;BME280;67169;50.268;8.694;2023-06-10T10:17:04;99452.81;;;30.90;32.59
77979;BME280;67169;50.268;8.694;2023-06-10T10:19:37;99442.72;;;31.04;31.75
77979;BME280;67169;50.268;8.694;2023-06-10T10:22:08;99440.00;;;30.89;31.23
77979;BME280;67169;50.268;8.694;2023-06-10T10:24:42;99443.06;;;30.94;34.66
77979;BME280;67169;50.268;8.694;2023-06-10T10:27:17;99432.47;;;31.47;32.49
77979;BME280;67169;50.268;8.694;2023-06-10T10:29:46;99439.88;;;30.97;33.49
77979;BME280;67169;50.268;8.694;2023-06-10T10:32:14;99434.13;;;31.20;32.38
77979;BME280;67169;50.268;8.694;2023-06-10T10:34:49;99438.13;;;31.60;33.85
77979;BME280;67169;50.268;8.694;2023-06-10T10:37:17;99437.22;;;31.10;32.44
77979;BME280;67169;50.268;8.694;2023-06-10T10:39:45;99431.56;;;31.18;33.24
77979;BME280;67169;50.268;8.694;2023-06-10T10:42:12;99432.91;;;31.51;31.86
77979;BME280;67169;50.268;8.694;2023-06-10T10:44:40;99423.69;;;31.78;32.36
77979;BME280;67169;50.268;8.694;2023-06-10T10:47:08;99417.72;;;31.81;29.79
77979;BME280;67169;50.268;8.694;2023-06-10T10:49:37;99423.31;;;31.53;30.62
77979;BME280;67169;50.268;8.694;2023-06-10T10:52:04;99427.03;;;31.17;29.39
77979;BME280;67169;50.268;8.694;2023-06-10T10:54:33;99431.09;;;31.36;28.28
77979;BME280;67169;50.268;8.694;2023-06-10T10:57:14;99375.28;;;31.66;29.43
77979;BME280;67169;50.268;8.694;2023-06-10T10:59:46;99398.94;;;31.06;27.63
77979;BME280;67169;50.268;8.694;2023-06-10T11:02:17;99418.97;;;30.43;29.11
77979;BME280;67169;50.268;8.694;2023-06-10T11:04:45;99417.00;;;30.95;27.88
77979;BME280;67169;50.268;8.694;2023-06-10T11:07:12;99414.53;;;31.28;29.00
77979;BME280;67169;50.268;8.694;2023-06-10T11:09:58;99415.88;;;31.60;26.77
77979;BME280;67169;50.268;8.694;2023-06-10T11:12:40;99415.72;;;31.40;27.93
77979;BME280;67169;50.268;8.694;2023-06-10T11:15:08;99402.03;;;30.74;28.05
77979;BME280;67169;50.268;8.694;2023-06-10T11:17:34;99406.63;;;31.53;29.82
77979;BME280;67169;50.268;8.694;2023-06-10T11:20:01;99409.81;;;32.13;27.29
77979;BME280;67169;50.268;8.694;2023-06-10T11:22:27;99404.44;;;31.77;26.65
77979;BME280;67169;50.268;8.694;2023-06-10T11:24:54;99404.06;;;32.28;25.37
77979;BME280;67169;50.268;8.694;2023-06-10T11:27:24;99403.38;;;32.12;25.57
77979;BME280;67169;50.268;8.694;2023-06-10T11:30:17;99402.38;;;32.27;27.86
77979;BME280;67169;50.268;8.694;2023-06-10T11:32:45;99408.34;;;32.24;26.90
77979;BME280;67169;50.268;8.694;2023-06-10T11:35:16;99401.13;;;31.88;26.59
77979;BME280;67169;50.268;8.694;2023-06-10T11:37:44;99397.75;;;31.99;26.73
77979;BME280;67169;50.268;8.694;2023-06-10T11:40:12;99396.97;;;32.12;27.98
77979;BME280;67169;50.268;8.694;2023-06-10T11:42:39;99404.88;;;32.56;27.09
77979;BME280;67169;50.268;8.694;2023-06-10T11:45:08;99405.34;;;32.67;26.72
77979;BME280;67169;50.268;8.694;2023-06-10T11:47:35;99386.09;;;33.45;26.21
77979;BME280;67169;50.268;8.694;2023-06-10T11:50:02;99391.72;;;33.12;24.08
77979;BME280;67169;50.268;8.694;2023-06-10T11:52:30;99399.44;;;33.23;25.46
77979;BME280;67169;50.268;8.694;2023-06-10T11:54:57;99382.25;;;33.46;25.51
77979;BME280;67169;50.268;8.694;2023-06-10T11:57:24;99389.56;;;33.33;24.17
77979;BME280;67169;50.268;8.694;2023-06-10T11:59:50;99393.41;;;32.99;24.25
77979;BME280;67169;50.268;8.694;2023-06-10T12:02:18;99386.56;;;33.22;26.74
77979;BME280;67169;50.268;8.694;2023-06-10T12:04:45;99392.97;;;33.69;24.66
77979;BME280;67169;50.268;8.694;2023-06-10T12:07:17;99387.84;;;33.32;24.70
77979;BME280;67169;50.268;8.694;2023-06-10T12:09:43;99392.19;;;32.47;27.38
77979;BME280;67169;50.268;8.694;2023-06-10T12:12:10;99392.78;;;32.36;26.98
77979;BME280;67169;50.268;8.694;2023-06-10T12:14:55;99388.63;;;32.93;26.07
77979;BME280;67169;50.268;8.694;2023-06-10T12:17:24;99388.63;;;33.86;25.37
77979;BME280;67169;50.268;8.694;2023-06-10T12:20:04;99392.25;;;34.07;25.79
77979;BME280;67169;50.268;8.694;2023-06-10T12:22:36;99387.75;;;33.92;24.49
77979;BME280;67169;50.268;8.694;2023-06-10T12:25:05;99382.47;;;33.71;26.48
77979;BME280;67169;50.268;8.694;2023-06-10T12:27:34;99379.69;;;33.38;27.17
77979;BME280;67169;50.268;8.694;2023-06-10T12:30:02;99380.56;;;33.38;25.80
77979;BME280;67169;50.268;8.694;2023-06-10T12:32:38;99382.03;;;33.74;25.65
77979;BME280;67169;50.268;8.694;2023-06-10T12:35:06;99369.97;;;34.00;24.92
77979;BME280;67169;50.268;8.694;2023-06-10T12:37:33;99375.09;;;34.03;25.55
77979;BME280;67169;50.268;8.694;2023-06-10T12:40:01;99378.84;;;33.57;26.34
77979;BME280;67169;50.268;8.694;2023-06-10T12:42:28;99367.78;;;33.95;26.44
77979;BME280;67169;50.268;8.694;2023-06-10T12:44:56;99366.72;;;33.96;27.17
77979;BME280;67169;50.268;8.694;2023-06-10T12:47:29;99374.97;;;34.36;25.19
77979;BME280;67169;50.268;8.694;2023-06-10T12:49:59;99365.69;;;34.42;23.93
77979;BME280;67169;50.268;8.694;2023-06-10T12:52:26;99367.91;;;34.27;25.18
77979;BME280;67169;50.268;8.694;2023-06-10T12:54:52;99358.66;;;34.33;25.12
77979;BME280;67169;50.268;8.694;2023-06-10T12:57:20;99360.94;;;34.56;24.70
77979;BME280;67169;50.268;8.694;2023-06-10T12:59:46;99353.53;;;34.68;25.90
77979;BME280;67169;50.268;8.694;2023-06-10T13:02:17;99361.38;;;34.01;26.31